Página principal
METAR-TAF:

METAR-TAF

Aeroportos :

Nioro du Sahel, Mali

latitude: 15-14N, longitude: 009-21W, altura: 235 m

Observação actual do tempo

O boletim foi feito há 3 horas e 2 minutos, às 09:00 UTC
Vento 6 kt de oeste
Temperatura 27°C
Humidade 84%
Pressão 1014 hPa
Visibilidade 10 km ou mais
Nuvens dispersasa uma altura de 3000 ft

METAR: GANR 190900Z 26006KT 9999 SCT030 27/24 Q1014

Hora: 12:02 (12:02 UTC)


TAF: em falta

Observações e previsões do tempo de mais de 4000 aeroportos (mensagens METAR e TAF).

As estações disponíveis são os pontos amarelos e vermelhos sobre o mapa.

Mova o rato sobre o mapa para ver o nome da estação.

Depois clique no ponto para visualizar as observações e previsões meteorológicas.

Para alterar o mapa : clique nos botões verdes com uma cruz preta para aumentar o zoom; no botão verde com uma pitada de zoom; ou nas setas verdes para mapas adjacentes.


METAR-TAF: